sensor_id;sensor_type;location;lat;lon;timestamp;pressure;altitude;pressure_sealevel;temperature;humidity
9774;BME280;4926;42.670;23.316;2023-01-26T07:28:11;94697.81;;;-0.11;100.00
9774;BME280;4926;42.670;23.316;2023-01-26T07:30:38;94701.97;;;-0.04;100.00
9774;BME280;4926;42.670;23.316;2023-01-26T07:33:04;94687.75;;;0.04;100.00
9774;BME280;4926;42.670;23.316;2023-01-26T07:35:33;94695.34;;;0.12;100.00
9774;BME280;4926;42.670;23.316;2023-01-26T07:38:02;94696.78;;;-0.10;100.00
9774;BME280;4926;42.670;23.316;2023-01-26T07:40:29;94693.16;;;-0.09;100.00
9774;BME280;4926;42.670;23.316;2023-01-26T07:42:56;94695.19;;;-0.11;100.00
9774;BME280;4926;42.670;23.316;2023-01-26T07:45:27;94684.72;;;-0.11;100.00
9774;BME280;4926;42.670;23.316;2023-01-26T07:47:54;94688.06;;;-0.04;100.00
9774;BME280;4926;42.670;23.316;2023-01-26T07:50:20;94683.41;;;-0.02;100.00
9774;BME280;4926;42.670;23.316;2023-01-26T07:52:47;94680.50;;;0.06;100.00
9774;BME280;4926;42.670;23.316;2023-01-26T07:55:17;94695.84;;;0.03;100.00
9774;BME280;4926;42.670;23.316;2023-01-26T07:57:48;94699.41;;;0.08;100.00
9774;BME280;4926;42.670;23.316;2023-01-26T08:00:20;94688.06;;;-0.04;100.00
9774;BME280;4926;42.670;23.316;2023-01-26T08:02:49;94685.72;;;0.06;100.00
9774;BME280;4926;42.670;23.316;2023-01-26T08:05:16;94679.31;;;0.02;100.00
9774;BME280;4926;42.670;23.316;2023-01-26T08:07:45;94681.22;;;0.13;100.00
9774;BME280;4926;42.670;23.316;2023-01-26T08:10:12;94676.44;;;0.10;100.00
9774;BME280;4926;42.670;23.316;2023-01-26T08:12:40;94682.44;;;0.11;100.00
9774;BME280;4926;42.670;23.316;2023-01-26T08:15:12;94674.09;;;0.02;100.00
9774;BME280;4926;42.670;23.316;2023-01-26T08:17:39;94673.53;;;0.00;100.00
9774;BME280;4926;42.670;23.316;2023-01-26T08:20:16;94669.00;;;0.07;100.00
9774;BME280;4926;42.670;23.316;2023-01-26T08:22:43;94669.88;;;0.19;100.00
9774;BME280;4926;42.670;23.316;2023-01-26T08:25:09;94670.09;;;0.18;100.00
9774;BME280;4926;42.670;23.316;2023-01-26T08:27:40;94652.56;;;0.18;100.00
9774;BME280;4926;42.670;23.316;2023-01-26T08:30:08;94669.22;;;0.24;100.00
9774;BME280;4926;42.670;23.316;2023-01-26T08:32:35;94655.78;;;0.20;100.00
9774;BME280;4926;42.670;23.316;2023-01-26T08:35:02;94652.13;;;0.21;100.00
9774;BME280;4926;42.670;23.316;2023-01-26T08:37:32;94660.91;;;0.27;100.00
9774;BME280;4926;42.670;23.316;2023-01-26T08:39:59;94648.19;;;0.30;100.00
9774;BME280;4926;42.670;23.316;2023-01-26T08:42:25;94649.47;;;0.39;100.00
9774;BME280;4926;42.670;23.316;2023-01-26T08:44:56;94648.66;;;0.39;100.00
9774;BME280;4926;42.670;23.316;2023-01-26T08:47:23;94643.06;;;0.35;100.00
9774;BME280;4926;42.670;23.316;2023-01-26T08:49:51;94646.28;;;0.37;100.00
9774;BME280;4926;42.670;23.316;2023-01-26T08:52:18;94648.97;;;0.49;100.00
9774;BME280;4926;42.670;23.316;2023-01-26T08:54:48;94654.72;;;0.39;99.04
9774;BME280;4926;42.670;23.316;2023-01-26T08:57:15;94661.13;;;0.43;98.81
9774;BME280;4926;42.670;23.316;2023-01-26T08:59:41;94651.34;;;0.50;98.98
9774;BME280;4926;42.670;23.316;2023-01-26T09:02:08;94659.44;;;0.49;97.88
9774;BME280;4926;42.670;23.316;2023-01-26T09:04:35;94654.09;;;0.55;97.14
9774;BME280;4926;42.670;23.316;2023-01-26T09:07:03;94646.56;;;0.47;96.40
9774;BME280;4926;42.670;23.316;2023-01-26T09:09:32;94646.69;;;0.52;95.97
9774;BME280;4926;42.670;23.316;2023-01-26T09:12:03;94659.22;;;0.62;95.34
9774;BME280;4926;42.670;23.316;2023-01-26T09:14:30;94650.78;;;0.60;94.99
9774;BME280;4926;42.670;23.316;2023-01-26T09:16:57;94654.22;;;0.60;95.41
9774;BME280;4926;42.670;23.316;2023-01-26T09:19:23;94647.25;;;0.54;95.33
9774;BME280;4926;42.670;23.316;2023-01-26T09:21:51;94645.34;;;0.61;94.77
9774;BME280;4926;42.670;23.316;2023-01-26T09:24:18;94647.25;;;0.54;94.81
9774;BME280;4926;42.670;23.316;2023-01-26T09:26:45;94633.47;;;0.47;95.49
9774;BME280;4926;42.670;23.316;2023-01-26T09:29:13;94627.44;;;0.58;95.90
9774;BME280;4926;42.670;23.316;2023-01-26T09:31:41;94622.09;;;0.53;95.83
9774;BME280;4926;42.670;23.316;2023-01-26T09:34:08;94616.09;;;0.64;96.45
9774;BME280;4926;42.670;23.316;2023-01-26T09:36:34;94605.81;;;0.51;95.78
9774;BME280;4926;42.670;23.316;2023-01-26T09:39:01;94603.53;;;0.55;97.26
9774;BME280;4926;42.670;23.316;2023-01-26T09:41:48;94605.81;;;0.51;97.17
9774;BME280;4926;42.670;23.316;2023-01-26T09:44:22;94609.31;;;0.45;97.93
9774;BME280;4926;42.670;23.316;2023-01-26T09:47:11;94614.69;;;0.50;98.98
9774;BME280;4926;42.670;23.316;2023-01-26T09:49:45;94610.06;;;0.64;97.83
9774;BME280;4926;42.670;23.316;2023-01-26T09:52:19;94600.69;;;0.56;97.39
9774;BME280;4926;42.670;23.316;2023-01-26T09:54:51;94594.09;;;0.54;97.73
9774;BME280;4926;42.670;23.316;2023-01-26T09:57:22;94588.63;;;0.67;98.05
9774;BME280;4926;42.670;23.316;2023-01-26T09:59:57;94553.88;;;0.48;96.93
9774;BME280;4926;42.670;23.316;2023-01-26T10:02:39;94594.69;;;0.67;96.82
9774;BME280;4926;42.670;23.316;2023-01-26T10:05:14;94590.50;;;0.78;97.62
9774;BME280;4926;42.670;23.316;2023-01-26T10:07:53;94598.34;;;0.66;96.76
9774;BME280;4926;42.670;23.316;2023-01-26T10:10:31;94597.88;;;0.69;96.77
9774;BME280;4926;42.670;23.316;2023-01-26T10:13:03;94594.69;;;0.67;96.81
9774;BME280;4926;42.670;23.316;2023-01-26T10:15:33;94596.28;;;0.68;97.60
9774;BME280;4926;42.670;23.316;2023-01-26T10:18:12;94583.56;;;0.83;97.06
9774;BME280;4926;42.670;23.316;2023-01-26T10:20:44;94566.22;;;0.82;96.03
9774;BME280;4926;42.670;23.316;2023-01-26T10:23:15;94563.19;;;0.85;96.04
9774;BME280;4926;42.670;23.316;2023-01-26T10:25:44;94552.13;;;0.83;95.79
9774;BME280;4926;42.670;23.316;2023-01-26T10:28:13;94551.78;;;0.80;96.06
9774;BME280;4926;42.670;23.316;2023-01-26T10:30:43;94536.06;;;0.80;95.82
9774;BME280;4926;42.670;23.316;2023-01-26T10:33:14;94527.41;;;0.79;95.40
9774;BME280;4926;42.670;23.316;2023-01-26T10:35:41;94526.38;;;0.80;96.04
9774;BME280;4926;42.670;23.316;2023-01-26T10:38:26;94509.41;;;0.83;95.65
9774;BME280;4926;42.670;23.316;2023-01-26T10:40:54;94500.41;;;0.90;95.75
9774;BME280;4926;42.670;23.316;2023-01-26T10:43:20;94491.63;;;0.96;95.71
9774;BME280;4926;42.670;23.316;2023-01-26T10:45:51;94477.41;;;0.92;94.79
9774;BME280;4926;42.670;23.316;2023-01-26T10:48:19;94464.13;;;1.10;94.66
9774;BME280;4926;42.670;23.316;2023-01-26T10:50:46;94478.66;;;1.01;93.17
9774;BME280;4926;42.670;23.316;2023-01-26T10:53:15;94472.72;;;1.06;93.71
9774;BME280;4926;42.670;23.316;2023-01-26T10:55:43;94473.72;;;1.17;93.53
9774;BME280;4926;42.670;23.316;2023-01-26T10:58:45;94463.38;;;1.10;93.38
9774;BME280;4926;42.670;23.316;2023-01-26T11:01:15;94454.31;;;1.17;93.88
9774;BME280;4926;42.670;23.316;2023-01-26T11:04:06;94429.13;;;1.28;92.76
9774;BME280;4926;42.670;23.316;2023-01-26T11:06:33;94443.13;;;1.34;92.18
9774;BME280;4926;42.670;23.316;2023-01-26T11:09:14;94432.38;;;1.47;92.63
9774;BME280;4926;42.670;23.316;2023-01-26T11:11:54;94432.16;;;1.37;91.54
9774;BME280;4926;42.670;23.316;2023-01-26T11:14:22;94433.09;;;1.31;91.94
9774;BME280;4926;42.670;23.316;2023-01-26T11:16:54;94431.16;;;1.26;91.83
9774;BME280;4926;42.670;23.316;2023-01-26T11:19:35;94426.06;;;1.20;92.74
9774;BME280;4926;42.670;23.316;2023-01-26T11:22:06;94422.44;;;1.21;93.18
9774;BME280;4926;42.670;23.316;2023-01-26T11:24:41;94407.84;;;1.13;93.82
9774;BME280;4926;42.670;23.316;2023-01-26T11:27:21;94398.94;;;1.26;93.73
9774;BME280;4926;42.670;23.316;2023-01-26T11:30:40;94396.72;;;1.34;93.54
9774;BME280;4926;42.670;23.316;2023-01-26T11:33:22;94395.94;;;1.34;92.83
9774;BME280;4926;42.670;23.316;2023-01-26T11:35:59;94391.34;;;1.41;92.87
9774;BME280;4926;42.670;23.316;2023-01-26T11:38:36;94389.75;;;1.40;93.45
9774;BME280;4926;42.670;23.316;2023-01-26T11:41:27;94386.09;;;1.41;93.29
9774;BME280;4926;42.670;23.316;2023-01-26T11:44:29;94386.09;;;1.41;93.06
9774;BME280;4926;42.670;23.316;2023-01-26T11:47:12;94380.81;;;1.24;95.03
9774;BME280;4926;42.670;23.316;2023-01-26T11:50:03;94384.69;;;1.22;94.96
9774;BME280;4926;42.670;23.316;2023-01-26T11:52:53;94386.97;;;1.18;95.78
9774;BME280;4926;42.670;23.316;2023-01-26T11:55:28;94380.94;;;1.17;95.90
9774;BME280;4926;42.670;23.316;2023-01-26T11:58:15;94387.78;;;1.19;96.78
9774;BME280;4926;42.670;23.316;2023-01-26T12:00:51;94365.88;;;1.25;96.59
9774;BME280;4926;42.670;23.316;2023-01-26T12:03:24;94364.94;;;1.31;96.30
9774;BME280;4926;42.670;23.316;2023-01-26T12:05:56;94362.88;;;1.33;95.73
9774;BME280;4926;42.670;23.316;2023-01-26T12:08:28;94347.16;;;1.33;95.77
9774;BME280;4926;42.670;23.316;2023-01-26T12:11:05;94362.22;;;1.26;95.85
9774;BME280;4926;42.670;23.316;2023-01-26T12:13:56;94349.03;;;1.21;97.54
9774;BME280;4926;42.670;23.316;2023-01-26T12:16:34;94337.50;;;1.22;97.26
9774;BME280;4926;42.670;23.316;2023-01-26T12:19:09;94331.69;;;1.20;98.17
9774;BME280;4926;42.670;23.316;2023-01-26T12:21:42;94320.56;;;1.12;98.12
9774;BME280;4926;42.670;23.316;2023-01-26T12:24:13;94313.44;;;1.25;98.53
9774;BME280;4926;42.670;23.316;2023-01-26T12:26:46;94314.97;;;1.21;98.56
9774;BME280;4926;42.670;23.316;2023-01-26T12:29:19;94308.50;;;1.11;98.88
9774;BME280;4926;42.670;23.316;2023-01-26T12:31:53;94320.41;;;1.19;99.83
9774;BME280;4926;42.670;23.316;2023-01-26T12:34:26;94314.38;;;1.19;100.00
9774;BME280;4926;42.670;23.316;2023-01-26T12:37:02;94310.03;;;1.24;100.00
9774;BME280;4926;42.670;23.316;2023-01-26T12:39:33;94292.72;;;1.23;100.00
9774;BME280;4926;42.670;23.316;2023-01-26T12:42:16;94289.75;;;1.20;100.00
9774;BME280;4926;42.670;23.316;2023-01-26T12:44:48;94297.06;;;1.17;100.00
9774;BME280;4926;42.670;23.316;2023-01-26T12:47:22;94291.69;;;1.24;100.00
9774;BME280;4926;42.670;23.316;2023-01-26T12:49:57;94300.31;;;1.25;100.00
9774;BME280;4926;42.670;23.316;2023-01-26T12:52:30;94303.03;;;1.30;100.00
9774;BME280;4926;42.670;23.316;2023-01-26T12:55:03;94295.97;;;1.30;100.00
9774;BME280;4926;42.670;23.316;2023-01-26T12:57:35;94294.06;;;1.26;100.00
9774;BME280;4926;42.670;23.316;2023-01-26T13:00:17;94288.75;;;1.21;100.00
9774;BME280;4926;42.670;23.316;2023-01-26T13:02:46;94287.22;;;1.25;100.00
9774;BME280;4926;42.670;23.316;2023-01-26T13:05:24;94272.28;;;1.25;100.00
9774;BME280;4926;42.670;23.316;2023-01-26T13:07:52;94268.13;;;1.12;100.00
9774;BME280;4926;42.670;23.316;2023-01-26T13:10:25;94280.22;;;1.13;100.00
9774;BME280;4926;42.670;23.316;2023-01-26T13:12:56;94279.75;;;1.17;100.00
9774;BME280;4926;42.670;23.316;2023-01-26T13:15:25;94282.38;;;1.17;100.00
9774;BME280;4926;42.670;23.316;2023-01-26T13:17:54;94276.09;;;1.17;100.00
9774;BME280;4926;42.670;23.316;2023-01-26T13:20:43;94282.78;;;1.25;100.00
9774;BME280;4926;42.670;23.316;2023-01-26T13:26:20;94269.28;;;1.17;100.00
9774;BME280;4926;42.670;23.316;2023-01-26T13:28:49;94272.44;;;1.19;100.00
9774;BME280;4926;42.670;23.316;2023-01-26T13:31:32;94272.44;;;1.19;100.00
9774;BME280;4926;42.670;23.316;2023-01-26T13:34:04;94271.97;;;1.22;100.00
9774;BME280;4926;42.670;23.316;2023-01-26T13:36:35;94270.84;;;1.17;100.00
9774;BME280;4926;42.670;23.316;2023-01-26T13:39:11;94271.41;;;1.20;100.00
9774;BME280;4926;42.670;23.316;2023-01-26T13:41:46;94270.72;;;1.24;100.00
9774;BME280;4926;42.670;23.316;2023-01-26T13:44:16;94265.81;;;1.28;100.00
9774;BME280;4926;42.670;23.316;2023-01-26T13:46:50;94263.72;;;1.30;100.00
9774;BME280;4926;42.670;23.316;2023-01-26T13:49:24;94266.44;;;1.35;100.00
9774;BME280;4926;42.670;23.316;2023-01-26T13:51:54;94271.69;;;1.35;100.00
9774;BME280;4926;42.670;23.316;2023-01-26T13:54:21;94269.75;;;1.30;100.00
9774;BME280;4926;42.670;23.316;2023-01-26T13:57:02;94267.53;;;1.39;100.00
9774;BME280;4926;42.670;23.316;2023-01-26T13:59:29;94267.09;;;1.42;100.00
9774;BME280;4926;42.670;23.316;2023-01-26T14:01:59;94253.88;;;1.37;100.00
9774;BME280;4926;42.670;23.316;2023-01-26T14:04:29;94253.88;;;1.37;100.00
9774;BME280;4926;42.670;23.316;2023-01-26T14:06:58;94245.94;;;1.32;100.00
9774;BME280;4926;42.670;23.316;2023-01-26T14:09:31;94238.13;;;1.37;100.00
9774;BME280;4926;42.670;23.316;2023-01-26T14:12:03;94233.22;;;1.40;100.00
9774;BME280;4926;42.670;23.316;2023-01-26T14:14:32;94239.25;;;1.41;100.00
9774;BME280;4926;42.670;23.316;2023-01-26T14:17:05;94236.16;;;1.44;100.00
9774;BME280;4926;42.670;23.316;2023-01-26T14:19:38;94236.41;;;1.42;100.00
9774;BME280;4926;42.670;23.316;2023-01-26T14:22:10;94235.13;;;1.45;100.00
9774;BME280;4926;42.670;23.316;2023-01-26T14:24:38;94239.09;;;1.47;100.00
9774;BME280;4926;42.670;23.316;2023-01-26T14:27:25;94240.13;;;1.46;100.00
9774;BME280;4926;42.670;23.316;2023-01-26T14:29:53;94229.09;;;1.44;100.00
9774;BME280;4926;42.670;23.316;2023-01-26T14:32:20;94227.34;;;1.50;100.00
9774;BME280;4926;42.670;23.316;2023-01-26T14:34:54;94228.84;;;1.46;100.00
9774;BME280;4926;42.670;23.316;2023-01-26T14:37:21;94223.69;;;1.51;100.00
9774;BME280;4926;42.670;23.316;2023-01-26T14:39:49;94226.88;;;1.53;100.00
9774;BME280;4926;42.670;23.316;2023-01-26T14:42:19;94225.19;;;1.63;100.00
9774;BME280;4926;42.670;23.316;2023-01-26T14:44:50;94228.63;;;1.64;99.44
9774;BME280;4926;42.670;23.316;2023-01-26T14:47:19;94212.94;;;1.69;99.58
9774;BME280;4926;42.670;23.316;2023-01-26T14:49:51;94223.59;;;1.79;98.88
9774;BME280;4926;42.670;23.316;2023-01-26T14:52:24;94219.28;;;1.89;97.84
9774;BME280;4926;42.670;23.316;2023-01-26T14:54:56;94216.81;;;1.83;96.74
9774;BME280;4926;42.670;23.316;2023-01-26T14:57:27;94215.41;;;1.75;96.64
9774;BME280;4926;42.670;23.316;2023-01-26T14:59:55;94220.88;;;1.74;96.61
9774;BME280;4926;42.670;23.316;2023-01-26T15:02:24;94224.75;;;1.88;96.84
9774;BME280;4926;42.670;23.316;2023-01-26T15:04:57;94225.88;;;1.92;95.99
9774;BME280;4926;42.670;23.316;2023-01-26T15:07:34;94223.00;;;1.93;96.06
9774;BME280;4926;42.670;23.316;2023-01-26T15:10:02;94208.00;;;2.10;95.59
9774;BME280;4926;42.670;23.316;2023-01-26T15:12:36;94194.19;;;2.15;93.82
9774;BME280;4926;42.670;23.316;2023-01-26T15:15:11;94197.72;;;2.25;92.18
9774;BME280;4926;42.670;23.316;2023-01-26T15:17:39;94205.28;;;2.22;92.34
9774;BME280;4926;42.670;23.316;2023-01-26T15:20:37;94202.94;;;2.04;92.17
9774;BME280;4926;42.670;23.316;2023-01-26T15:23:21;94194.19;;;2.15;93.48
9774;BME280;4926;42.670;23.316;2023-01-26T15:25:51;94181.47;;;2.28;93.74
9774;BME280;4926;42.670;23.316;2023-01-26T15:28:24;94178.66;;;2.35;93.09
9774;BME280;4926;42.670;23.316;2023-01-26T15:30:53;94172.53;;;2.51;91.59
9774;BME280;4926;42.670;23.316;2023-01-26T15:33:54;94176.31;;;2.60;91.14
9774;BME280;4926;42.670;23.316;2023-01-26T15:36:30;94170.47;;;2.53;91.44
9774;BME280;4926;42.670;23.316;2023-01-26T15:39:00;94171.06;;;2.60;91.29
9774;BME280;4926;42.670;23.316;2023-01-26T15:41:30;94162.94;;;2.62;92.52
9774;BME280;4926;42.670;23.316;2023-01-26T15:43:59;94155.41;;;2.70;95.22
9774;BME280;4926;42.670;23.316;2023-01-26T15:46:26;94151.63;;;2.61;100.00
9774;BME280;4926;42.670;23.316;2023-01-26T15:48:53;94147.38;;;2.34;100.00
9774;BME280;4926;42.670;23.316;2023-01-26T15:51:20;94127.03;;;2.24;100.00
9774;BME280;4926;42.670;23.316;2023-01-26T15:53:47;94140.56;;;2.11;100.00
9774;BME280;4926;42.670;23.316;2023-01-26T15:56:15;94128.91;;;2.02;100.00
9774;BME280;4926;42.670;23.316;2023-01-26T15:58:42;94120.84;;;1.87;100.00
9774;BME280;4926;42.670;23.316;2023-01-26T16:01:13;94117.00;;;1.73;100.00
9774;BME280;4926;42.670;23.316;2023-01-26T16:03:41;94124.00;;;1.67;100.00
9774;BME280;4926;42.670;23.316;2023-01-26T16:06:17;94121.72;;;1.54;100.00
9774;BME280;4926;42.670;23.316;2023-01-26T16:08:48;94127.22;;;1.53;100.00
9774;BME280;4926;42.670;23.316;2023-01-26T16:11:15;94127.69;;;1.50;100.00
9774;BME280;4926;42.670;23.316;2023-01-26T16:13:44;94134.06;;;1.54;100.00
9774;BME280;4926;42.670;23.316;2023-01-26T16:16:13;94116.47;;;1.54;100.00
9774;BME280;4926;42.670;23.316;2023-01-26T16:18:41;94129.84;;;1.53;100.00
9774;BME280;4926;42.670;23.316;2023-01-26T16:21:16;94123.72;;;1.47;100.00
9774;BME280;4926;42.670;23.316;2023-01-26T16:23:45;94113.47;;;1.46;100.00
9774;BME280;4926;42.670;23.316;2023-01-26T16:26:14;94122.06;;;1.41;100.00
9774;BME280;4926;42.670;23.316;2023-01-26T16:28:42;94111.75;;;1.35;100.00
9774;BME280;4926;42.670;23.316;2023-01-26T16:31:18;94109.66;;;1.37;100.00
9774;BME280;4926;42.670;23.316;2023-01-26T16:33:45;94103.41;;;1.38;100.00
9774;BME280;4926;42.670;23.316;2023-01-26T16:36:13;94114.53;;;1.45;100.00
9774;BME280;4926;42.670;23.316;2023-01-26T16:38:40;94112.28;;;1.37;100.00
9774;BME280;4926;42.670;23.316;2023-01-26T16:41:14;94108.41;;;1.39;100.00
9774;BME280;4926;42.670;23.316;2023-01-26T16:43:42;94116.03;;;1.41;100.00
9774;BME280;4926;42.670;23.316;2023-01-26T16:46:09;94114.53;;;1.28;100.00
9774;BME280;4926;42.670;23.316;2023-01-26T16:48:39;94117.53;;;1.37;100.00
9774;BME280;4926;42.670;23.316;2023-01-26T16:51:18;94113.41;;;1.41;100.00
9774;BME280;4926;42.670;23.316;2023-01-26T16:53:46;94118.72;;;1.46;100.00
9774;BME280;4926;42.670;23.316;2023-01-26T16:56:14;94116.75;;;1.36;100.00
9774;BME280;4926;42.670;23.316;2023-01-26T16:58:41;94111.91;;;1.45;100.00
9774;BME280;4926;42.670;23.316;2023-01-26T17:01:14;94103.53;;;1.48;100.00
9774;BME280;4926;42.670;23.316;2023-01-26T17:03:43;94093.16;;;1.36;100.00
9774;BME280;4926;42.670;23.316;2023-01-26T17:06:13;94097.38;;;1.37;100.00
9774;BME280;4926;42.670;23.316;2023-01-26T17:08:41;94087.38;;;1.34;100.00
9774;BME280;4926;42.670;23.316;2023-01-26T17:11:14;94088.00;;;1.25;100.00
9774;BME280;4926;42.670;23.316;2023-01-26T17:13:41;94074.34;;;1.23;100.00
9774;BME280;4926;42.670;23.316;2023-01-26T17:16:12;94085.38;;;1.25;100.00
9774;BME280;4926;42.670;23.316;2023-01-26T17:18:39;94086.44;;;1.24;100.00
9774;BME280;4926;42.670;23.316;2023-01-26T17:21:07;94081.19;;;1.24;100.00
9774;BME280;4926;42.670;23.316;2023-01-26T17:23:37;94082.19;;;1.23;100.00
9774;BME280;4926;42.670;23.316;2023-01-26T17:26:09;94071.81;;;1.28;100.00
9774;BME280;4926;42.670;23.316;2023-01-26T17:28:36;94071.81;;;1.28;100.00
9774;BME280;4926;42.670;23.316;2023-01-26T17:31:11;94076.50;;;1.09;100.00
9774;BME280;4926;42.670;23.316;2023-01-26T17:33:38;94071.34;;;1.14;100.00
9774;BME280;4926;42.670;23.316;2023-01-26T17:36:07;94065.47;;;1.24;100.00
9774;BME280;4926;42.670;23.316;2023-01-26T17:38:35;94069.59;;;1.20;100.00
9774;BME280;4926;42.670;23.316;2023-01-26T17:41:05;94054.97;;;1.24;100.00
9774;BME280;4926;42.670;23.316;2023-01-26T17:43:34;94051.72;;;1.17;100.00
9774;BME280;4926;42.670;23.316;2023-01-26T17:46:04;94044.81;;;1.10;100.00
9774;BME280;4926;42.670;23.316;2023-01-26T17:48:35;94050.78;;;1.06;100.00
9774;BME280;4926;42.670;23.316;2023-01-26T17:51:08;94045.31;;;1.07;100.00
9774;BME280;4926;42.670;23.316;2023-01-26T17:53:36;94034.19;;;1.00;100.00
9774;BME280;4926;42.670;23.316;2023-01-26T17:56:03;94040.25;;;0.84;100.00
9774;BME280;4926;42.670;23.316;2023-01-26T17:58:30;94042.56;;;0.97;100.00
9774;BME280;4926;42.670;23.316;2023-01-26T18:00:57;94047.31;;;1.00;100.00
9774;BME280;4926;42.670;23.316;2023-01-26T18:03:24;94038.97;;;1.03;100.00
9774;BME280;4926;42.670;23.316;2023-01-26T18:05:52;94026.75;;;0.92;100.00
9774;BME280;4926;42.670;23.316;2023-01-26T18:08:24;94022.88;;;0.78;100.00
9774;BME280;4926;42.670;23.316;2023-01-26T18:10:56;94033.41;;;1.00;100.00
9774;BME280;4926;42.670;23.316;2023-01-26T18:13:23;94021.16;;;1.05;100.00
9774;BME280;4926;42.670;23.316;2023-01-26T18:15:50;94005.44;;;1.05;100.00
9774;BME280;4926;42.670;23.316;2023-01-26T18:18:16;94000.16;;;1.00;100.00
9774;BME280;4926;42.670;23.316;2023-01-26T18:20:43;94000.69;;;1.02;100.00
9774;BME280;4926;42.670;23.316;2023-01-26T18:23:10;93990.72;;;0.99;100.00
9774;BME280;4926;42.670;23.316;2023-01-26T18:25:38;93986.72;;;0.97;100.00
9774;BME280;4926;42.670;23.316;2023-01-26T18:28:05;94001.19;;;0.99;100.00
9774;BME280;4926;42.670;23.316;2023-01-26T18:30:43;93990.16;;;0.97;100.00
9774;BME280;4926;42.670;23.316;2023-01-26T18:33:10;93995.63;;;0.96;100.00
9774;BME280;4926;42.670;23.316;2023-01-26T18:35:36;93992.91;;;1.07;100.00
9774;BME280;4926;42.670;23.316;2023-01-26T18:38:04;93998.16;;;1.07;100.00
9774;BME280;4926;42.670;23.316;2023-01-26T18:40:31;93985.66;;;1.14;100.00
9774;BME280;4926;42.670;23.316;2023-01-26T18:42:59;93977.25;;;1.12;100.00
9774;BME280;4926;42.670;23.316;2023-01-26T18:45:26;93990.34;;;1.12;100.00
9774;BME280;4926;42.670;23.316;2023-01-26T18:47:52;93975.72;;;1.17;100.00
9774;BME280;4926;42.670;23.316;2023-01-26T18:50:19;93975.91;;;1.10;100.00
9774;BME280;4926;42.670;23.316;2023-01-26T18:52:46;93973.28;;;1.10;100.00
9774;BME280;4926;42.670;23.316;2023-01-26T18:55:15;93963.34;;;1.12;100.00
9774;BME280;4926;42.670;23.316;2023-01-26T18:57:42;93960.50;;;1.13;100.00
9774;BME280;4926;42.670;23.316;2023-01-26T19:00:11;93957.78;;;1.08;100.00
9774;BME280;4926;42.670;23.316;2023-01-26T19:02:39;93956.22;;;1.07;100.00
9774;BME280;4926;42.670;23.316;2023-01-26T19:05:06;93955.16;;;1.08;100.00
9774;BME280;4926;42.670;23.316;2023-01-26T19:07:35;93952.09;;;1.11;100.00
9774;BME280;4926;42.670;23.316;2023-01-26T19:10:06;93945.31;;;0.94;100.00
9774;BME280;4926;42.670;23.316;2023-01-26T19:12:37;93947.06;;;0.88;100.00
9774;BME280;4926;42.670;23.316;2023-01-26T19:15:06;93943.31;;;0.84;100.00
9774;BME280;4926;42.670;23.316;2023-01-26T19:17:34;93926.03;;;0.83;100.00
9774;BME280;4926;42.670;23.316;2023-01-26T19:20:10;93921.09;;;0.87;100.00
9774;BME280;4926;42.670;23.316;2023-01-26T19:22:37;93921.41;;;0.90;100.00
9774;BME280;4926;42.670;23.316;2023-01-26T19:25:04;93927.06;;;0.82;100.00
9774;BME280;4926;42.670;23.316;2023-01-26T19:27:31;93923.44;;;0.83;100.00
9774;BME280;4926;42.670;23.316;2023-01-26T19:30:00;93920.91;;;0.72;100.00
9774;BME280;4926;42.670;23.316;2023-01-26T19:32:29;93917.38;;;0.83;100.00
9774;BME280;4926;42.670;23.316;2023-01-26T19:34:59;93910.03;;;0.80;100.00
9774;BME280;4926;42.670;23.316;2023-01-26T19:37:26;93924.22;;;0.84;100.00
9774;BME280;4926;42.670;23.316;2023-01-26T19:39:56;93911.72;;;0.69;100.00
9774;BME280;4926;42.670;23.316;2023-01-26T19:42:22;93920.75;;;0.78;100.00
9774;BME280;4926;42.670;23.316;2023-01-26T19:44:52;93922.38;;;0.84;100.00
9774;BME280;4926;42.670;23.316;2023-01-26T19:47:18;93925.50;;;0.81;100.00
9774;BME280;4926;42.670;23.316;2023-01-26T19:49:48;93911.59;;;0.81;100.00
9774;BME280;4926;42.670;23.316;2023-01-26T19:52:16;93915.13;;;0.91;100.00
9774;BME280;4926;42.670;23.316;2023-01-26T19:54:43;93912.50;;;0.91;100.00
9774;BME280;4926;42.670;23.316;2023-01-26T19:57:09;93914.06;;;0.87;100.00
9774;BME280;4926;42.670;23.316;2023-01-26T19:59:38;93914.66;;;0.94;100.00
9774;BME280;4926;42.670;23.316;2023-01-26T20:02:05;93916.72;;;0.92;100.00
9774;BME280;4926;42.670;23.316;2023-01-26T20:04:35;93921.47;;;0.95;100.00
9774;BME280;4926;42.670;23.316;2023-01-26T20:07:01;93913.88;;;0.94;100.00
9774;BME280;4926;42.670;23.316;2023-01-26T20:09:32;93908.31;;;0.90;100.00
9774;BME280;4926;42.670;23.316;2023-01-26T20:11:59;93919.09;;;0.94;100.00
9774;BME280;4926;42.670;23.316;2023-01-26T20:14:26;93908.81;;;0.87;100.00
9774;BME280;4926;42.670;23.316;2023-01-26T20:16:53;93912.63;;;0.80;100.00
9774;BME280;4926;42.670;23.316;2023-01-26T20:19:23;93903.09;;;0.90;100.00
9774;BME280;4926;42.670;23.316;2023-01-26T20:21:55;93894.19;;;0.91;100.00
9774;BME280;4926;42.670;23.316;2023-01-26T20:24:21;93886.31;;;0.91;100.00
9774;BME280;4926;42.670;23.316;2023-01-26T20:26:49;93883.38;;;0.88;100.00
9774;BME280;4926;42.670;23.316;2023-01-26T20:29:18;93884.50;;;0.92;100.00
9774;BME280;4926;42.670;23.316;2023-01-26T20:31:46;93880.22;;;0.86;100.00
9774;BME280;4926;42.670;23.316;2023-01-26T20:34:13;93868.53;;;0.93;100.00
9774;BME280;4926;42.670;23.316;2023-01-26T20:36:42;93857.25;;;0.93;100.00
9774;BME280;4926;42.670;23.316;2023-01-26T20:39:12;93851.50;;;0.91;100.00
9774;BME280;4926;42.670;23.316;2023-01-26T20:41:45;93853.25;;;0.85;100.00
9774;BME280;4926;42.670;23.316;2023-01-26T20:44:19;93841.19;;;0.84;100.00
9774;BME280;4926;42.670;23.316;2023-01-26T20:46:46;93860.19;;;0.75;100.00
9774;BME280;4926;42.670;23.316;2023-01-26T20:49:22;93865.13;;;0.71;100.00
9774;BME280;4926;42.670;23.316;2023-01-26T20:51:48;93855.00;;;0.80;100.00
9774;BME280;4926;42.670;23.316;2023-01-26T20:54:15;93853.00;;;0.87;100.00
9774;BME280;4926;42.670;23.316;2023-01-26T20:56:42;93855.88;;;0.85;100.00
9774;BME280;4926;42.670;23.316;2023-01-26T20:59:11;93862.06;;;0.79;100.00
9774;BME280;4926;42.670;23.316;2023-01-26T21:01:39;93875.34;;;0.73;100.00
9774;BME280;4926;42.670;23.316;2023-01-26T21:04:06;93856.84;;;0.79;100.00
9774;BME280;4926;42.670;23.316;2023-01-26T21:06:33;93856.88;;;0.84;100.00